LGZA/ZTH METAR and TAF weather

Enter ICAO airport designator
Station Type Date Time Source
LGZA METAR 2022/12/08 12:50 UTC NOAA

LGZA 081250Z 16010KT 9999 FEW016TCU SCT018 BKN070 19/16 Q1015


Station Type Date Time Source
LGZA Decoded METAR 2022/12/08 12:50 UTC NOAA

Zakinthos Airport , Greece (LGZA) 37-45N 020-53E
Dec 08, 2022 - 07:50 AM EST / 2022.12.08 1250 UTC
Wind: from the SSE (160 degrees) at 12 MPH (10 KT):0
Visibility: greater than 7 mile(s):0
Sky conditions: mostly cloudy
Weather: Towering cumulus clouds observed
Temperature: 66 F (19 C)
Dew Point: 60 F (16 C)
Relative Humidity: 82%
Pressure (altimeter): 29.97 in. Hg (1015 hPa)
ob: LGZA 081250Z 16010KT 9999 FEW016TCU SCT018 BKN070 19/16 Q1015
cycle: 13

Station Type Date Time Source
LGZA TAF 2011/11/25 15:06 UTC NOAA

TAF TAF LGZA 251400Z 2515/2603 02012KT 9999 FEW025 SCT035 BKN080 PROB30
TEMPO 2518/2603 8000 RA PROB30 2522/2603 5000 BR SCT010

Example: see airport list